sensor_id;sensor_type;location;lat;lon;timestamp;P1;durP1;ratioP1;P2;durP2;ratioP2
2031;SDS011;27625;50.422;7.944;2023-04-25T00:02:36;14.27;;;10.50;;
2031;SDS011;27625;50.422;7.944;2023-04-25T00:05:04;14.00;;;11.20;;
2031;SDS011;27625;50.422;7.944;2023-04-25T00:07:34;14.50;;;10.70;;
2031;SDS011;27625;50.422;7.944;2023-04-25T00:10:01;15.90;;;11.10;;
2031;SDS011;27625;50.422;7.944;2023-04-25T00:12:30;19.30;;;11.13;;
2031;SDS011;27625;50.422;7.944;2023-04-25T00:15:07;14.70;;;11.10;;
2031;SDS011;27625;50.422;7.944;2023-04-25T00:17:42;16.00;;;12.37;;
2031;SDS011;27625;50.422;7.944;2023-04-25T00:22:54;18.27;;;13.10;;
2031;SDS011;27625;50.422;7.944;2023-04-25T00:25:26;20.33;;;13.50;;
2031;SDS011;27625;50.422;7.944;2023-04-25T00:28:03;18.80;;;12.97;;
2031;SDS011;27625;50.422;7.944;2023-04-25T00:30:43;19.00;;;12.70;;
2031;SDS011;27625;50.422;7.944;2023-04-25T00:33:13;20.03;;;13.93;;
2031;SDS011;27625;50.422;7.944;2023-04-25T00:35:39;18.40;;;13.07;;
2031;SDS011;27625;50.422;7.944;2023-04-25T00:38:25;19.63;;;13.73;;
2031;SDS011;27625;50.422;7.944;2023-04-25T00:40:52;21.77;;;13.43;;
2031;SDS011;27625;50.422;7.944;2023-04-25T00:43:21;23.47;;;14.20;;
2031;SDS011;27625;50.422;7.944;2023-04-25T00:45:50;19.53;;;13.53;;
2031;SDS011;27625;50.422;7.944;2023-04-25T00:48:25;18.87;;;12.43;;
2031;SDS011;27625;50.422;7.944;2023-04-25T00:50:54;18.63;;;12.60;;
2031;SDS011;27625;50.422;7.944;2023-04-25T00:53:22;17.37;;;11.97;;
2031;SDS011;27625;50.422;7.944;2023-04-25T00:55:51;18.37;;;12.70;;
2031;SDS011;27625;50.422;7.944;2023-04-25T00:58:18;15.17;;;11.40;;
2031;SDS011;27625;50.422;7.944;2023-04-25T01:00:45;14.60;;;11.37;;
2031;SDS011;27625;50.422;7.944;2023-04-25T01:03:14;18.33;;;11.20;;
2031;SDS011;27625;50.422;7.944;2023-04-25T01:05:46;14.40;;;10.70;;
2031;SDS011;27625;50.422;7.944;2023-04-25T01:08:13;15.20;;;10.43;;
2031;SDS011;27625;50.422;7.944;2023-04-25T01:10:42;16.13;;;10.77;;
2031;SDS011;27625;50.422;7.944;2023-04-25T01:13:11;16.80;;;9.50;;
2031;SDS011;27625;50.422;7.944;2023-04-25T01:15:41;11.23;;;9.07;;
2031;SDS011;27625;50.422;7.944;2023-04-25T01:18:18;15.33;;;10.70;;
2031;SDS011;27625;50.422;7.944;2023-04-25T01:23:20;14.00;;;10.70;;
2031;SDS011;27625;50.422;7.944;2023-04-25T01:25:52;13.60;;;10.07;;
2031;SDS011;27625;50.422;7.944;2023-04-25T01:28:20;15.17;;;10.00;;
2031;SDS011;27625;50.422;7.944;2023-04-25T01:30:51;17.83;;;10.60;;
2031;SDS011;27625;50.422;7.944;2023-04-25T01:33:19;14.50;;;9.73;;
2031;SDS011;27625;50.422;7.944;2023-04-25T01:35:47;20.13;;;10.23;;
2031;SDS011;27625;50.422;7.944;2023-04-25T01:38:15;14.70;;;9.20;;
2031;SDS011;27625;50.422;7.944;2023-04-25T01:43:28;12.47;;;8.80;;
2031;SDS011;27625;50.422;7.944;2023-04-25T01:45:59;13.50;;;9.20;;
2031;SDS011;27625;50.422;7.944;2023-04-25T01:48:29;13.50;;;8.03;;
2031;SDS011;27625;50.422;7.944;2023-04-25T01:50:59;13.67;;;8.60;;
2031;SDS011;27625;50.422;7.944;2023-04-25T01:53:27;14.90;;;8.30;;
2031;SDS011;27625;50.422;7.944;2023-04-25T01:58:34;12.57;;;7.90;;
2031;SDS011;27625;50.422;7.944;2023-04-25T02:01:26;13.63;;;8.23;;
2031;SDS011;27625;50.422;7.944;2023-04-25T02:04:12;15.43;;;7.97;;
2031;SDS011;27625;50.422;7.944;2023-04-25T02:09:15;11.13;;;7.27;;
2031;SDS011;27625;50.422;7.944;2023-04-25T02:11:51;9.97;;;7.40;;
2031;SDS011;27625;50.422;7.944;2023-04-25T02:14:27;13.47;;;7.70;;
2031;SDS011;27625;50.422;7.944;2023-04-25T02:17:08;11.67;;;6.93;;
2031;SDS011;27625;50.422;7.944;2023-04-25T02:19:36;12.60;;;7.57;;
2031;SDS011;27625;50.422;7.944;2023-04-25T02:22:03;12.60;;;7.10;;
2031;SDS011;27625;50.422;7.944;2023-04-25T02:24:37;13.57;;;7.17;;
2031;SDS011;27625;50.422;7.944;2023-04-25T02:27:05;12.97;;;6.80;;
2031;SDS011;27625;50.422;7.944;2023-04-25T02:29:36;14.53;;;7.63;;
2031;SDS011;27625;50.422;7.944;2023-04-25T02:32:09;12.07;;;7.60;;
2031;SDS011;27625;50.422;7.944;2023-04-25T02:34:36;10.80;;;6.93;;
2031;SDS011;27625;50.422;7.944;2023-04-25T02:37:11;15.23;;;6.50;;
2031;SDS011;27625;50.422;7.944;2023-04-25T02:39:50;11.30;;;6.83;;
2031;SDS011;27625;50.422;7.944;2023-04-25T02:42:21;9.30;;;6.00;;
2031;SDS011;27625;50.422;7.944;2023-04-25T02:44:49;18.30;;;6.93;;
2031;SDS011;27625;50.422;7.944;2023-04-25T02:47:15;17.23;;;7.33;;
2031;SDS011;27625;50.422;7.944;2023-04-25T02:49:47;14.23;;;7.70;;
2031;SDS011;27625;50.422;7.944;2023-04-25T02:52:16;9.73;;;6.77;;
2031;SDS011;27625;50.422;7.944;2023-04-25T02:54:48;16.63;;;7.77;;
2031;SDS011;27625;50.422;7.944;2023-04-25T02:57:17;12.30;;;7.47;;
2031;SDS011;27625;50.422;7.944;2023-04-25T02:59:46;16.07;;;8.17;;
2031;SDS011;27625;50.422;7.944;2023-04-25T03:02:13;11.47;;;6.77;;
2031;SDS011;27625;50.422;7.944;2023-04-25T03:04:41;14.63;;;6.73;;
2031;SDS011;27625;50.422;7.944;2023-04-25T03:07:14;14.17;;;8.03;;
2031;SDS011;27625;50.422;7.944;2023-04-25T03:09:41;11.80;;;7.57;;
2031;SDS011;27625;50.422;7.944;2023-04-25T03:12:08;16.00;;;7.63;;
2031;SDS011;27625;50.422;7.944;2023-04-25T03:17:08;12.90;;;7.40;;
2031;SDS011;27625;50.422;7.944;2023-04-25T03:19:39;15.40;;;7.77;;
2031;SDS011;27625;50.422;7.944;2023-04-25T03:22:07;12.93;;;8.07;;
2031;SDS011;27625;50.422;7.944;2023-04-25T03:24:37;14.17;;;8.13;;
2031;SDS011;27625;50.422;7.944;2023-04-25T03:27:05;13.50;;;8.07;;
2031;SDS011;27625;50.422;7.944;2023-04-25T03:29:34;16.30;;;8.70;;
2031;SDS011;27625;50.422;7.944;2023-04-25T03:32:04;14.70;;;7.23;;
2031;SDS011;27625;50.422;7.944;2023-04-25T03:34:32;14.20;;;8.77;;
2031;SDS011;27625;50.422;7.944;2023-04-25T03:36:59;17.10;;;8.23;;
2031;SDS011;27625;50.422;7.944;2023-04-25T03:39:27;12.40;;;8.20;;
2031;SDS011;27625;50.422;7.944;2023-04-25T03:41:56;12.80;;;8.60;;
2031;SDS011;27625;50.422;7.944;2023-04-25T03:44:23;16.27;;;8.30;;
2031;SDS011;27625;50.422;7.944;2023-04-25T03:46:51;15.53;;;9.10;;
2031;SDS011;27625;50.422;7.944;2023-04-25T03:49:19;15.53;;;8.80;;
2031;SDS011;27625;50.422;7.944;2023-04-25T03:52:07;22.43;;;10.50;;
2031;SDS011;27625;50.422;7.944;2023-04-25T03:57:16;17.47;;;10.30;;
2031;SDS011;27625;50.422;7.944;2023-04-25T03:59:43;19.50;;;10.80;;
2031;SDS011;27625;50.422;7.944;2023-04-25T04:02:13;16.73;;;8.37;;
2031;SDS011;27625;50.422;7.944;2023-04-25T04:04:40;16.87;;;8.97;;
2031;SDS011;27625;50.422;7.944;2023-04-25T04:09:43;16.63;;;9.90;;
2031;SDS011;27625;50.422;7.944;2023-04-25T04:12:17;16.87;;;8.63;;
2031;SDS011;27625;50.422;7.944;2023-04-25T04:14:44;16.20;;;9.80;;
2031;SDS011;27625;50.422;7.944;2023-04-25T04:17:11;17.57;;;9.53;;
2031;SDS011;27625;50.422;7.944;2023-04-25T04:19:39;20.23;;;8.80;;
2031;SDS011;27625;50.422;7.944;2023-04-25T04:22:18;21.57;;;9.07;;
2031;SDS011;27625;50.422;7.944;2023-04-25T04:24:46;17.17;;;9.10;;
2031;SDS011;27625;50.422;7.944;2023-04-25T04:27:17;24.77;;;8.80;;
2031;SDS011;27625;50.422;7.944;2023-04-25T04:29:49;16.20;;;9.83;;
2031;SDS011;27625;50.422;7.944;2023-04-25T04:32:33;16.90;;;8.90;;
2031;SDS011;27625;50.422;7.944;2023-04-25T04:35:03;13.00;;;8.87;;
2031;SDS011;27625;50.422;7.944;2023-04-25T04:37:37;22.03;;;11.30;;
2031;SDS011;27625;50.422;7.944;2023-04-25T04:40:06;16.57;;;9.43;;
2031;SDS011;27625;50.422;7.944;2023-04-25T04:42:42;18.50;;;10.50;;
2031;SDS011;27625;50.422;7.944;2023-04-25T04:45:17;18.20;;;9.50;;
2031;SDS011;27625;50.422;7.944;2023-04-25T04:47:50;20.87;;;10.27;;
2031;SDS011;27625;50.422;7.944;2023-04-25T04:50:37;20.00;;;9.53;;
2031;SDS011;27625;50.422;7.944;2023-04-25T04:53:17;25.50;;;9.80;;
2031;SDS011;27625;50.422;7.944;2023-04-25T04:56:05;18.87;;;9.50;;
2031;SDS011;27625;50.422;7.944;2023-04-25T04:58:49;15.03;;;9.30;;
2031;SDS011;27625;50.422;7.944;2023-04-25T05:01:28;11.63;;;7.10;;
2031;SDS011;27625;50.422;7.944;2023-04-25T05:04:07;14.20;;;7.83;;
2031;SDS011;27625;50.422;7.944;2023-04-25T05:06:54;17.87;;;9.40;;
2031;SDS011;27625;50.422;7.944;2023-04-25T05:09:51;17.50;;;9.03;;
2031;SDS011;27625;50.422;7.944;2023-04-25T05:12:38;18.63;;;8.57;;
2031;SDS011;27625;50.422;7.944;2023-04-25T05:15:38;13.37;;;8.50;;
2031;SDS011;27625;50.422;7.944;2023-04-25T05:18:24;13.67;;;8.20;;
2031;SDS011;27625;50.422;7.944;2023-04-25T05:21:03;12.20;;;7.20;;
2031;SDS011;27625;50.422;7.944;2023-04-25T05:23:51;14.77;;;7.60;;
2031;SDS011;27625;50.422;7.944;2023-04-25T05:26:49;14.50;;;6.87;;
2031;SDS011;27625;50.422;7.944;2023-04-25T05:29:38;15.93;;;7.23;;
2031;SDS011;27625;50.422;7.944;2023-04-25T05:32:17;14.70;;;7.30;;
2031;SDS011;27625;50.422;7.944;2023-04-25T05:34:52;16.23;;;7.47;;
2031;SDS011;27625;50.422;7.944;2023-04-25T05:37:27;14.57;;;7.00;;
2031;SDS011;27625;50.422;7.944;2023-04-25T05:40:05;13.93;;;7.20;;
2031;SDS011;27625;50.422;7.944;2023-04-25T05:42:51;17.00;;;6.97;;
2031;SDS011;27625;50.422;7.944;2023-04-25T05:48:21;15.53;;;6.90;;
2031;SDS011;27625;50.422;7.944;2023-04-25T05:51:07;11.90;;;7.00;;
2031;SDS011;27625;50.422;7.944;2023-04-25T05:53:58;12.13;;;6.70;;
2031;SDS011;27625;50.422;7.944;2023-04-25T05:56:26;16.60;;;7.00;;
2031;SDS011;27625;50.422;7.944;2023-04-25T05:58:54;10.30;;;6.07;;
2031;SDS011;27625;50.422;7.944;2023-04-25T06:01:21;12.53;;;6.50;;
2031;SDS011;27625;50.422;7.944;2023-04-25T06:03:49;10.37;;;6.00;;
2031;SDS011;27625;50.422;7.944;2023-04-25T06:06:18;10.53;;;6.10;;
2031;SDS011;27625;50.422;7.944;2023-04-25T06:08:50;8.30;;;5.47;;
2031;SDS011;27625;50.422;7.944;2023-04-25T06:11:18;10.33;;;5.63;;
2031;SDS011;27625;50.422;7.944;2023-04-25T06:13:46;12.10;;;6.90;;
2031;SDS011;27625;50.422;7.944;2023-04-25T06:16:19;16.13;;;6.70;;
2031;SDS011;27625;50.422;7.944;2023-04-25T06:18:47;7.63;;;5.97;;
2031;SDS011;27625;50.422;7.944;2023-04-25T06:23:44;9.60;;;6.17;;
2031;SDS011;27625;50.422;7.944;2023-04-25T06:26:17;9.60;;;7.33;;
2031;SDS011;27625;50.422;7.944;2023-04-25T06:28:58;9.00;;;5.53;;
2031;SDS011;27625;50.422;7.944;2023-04-25T06:31:28;7.70;;;5.40;;
2031;SDS011;27625;50.422;7.944;2023-04-25T06:34:00;11.03;;;5.40;;
2031;SDS011;27625;50.422;7.944;2023-04-25T06:36:29;11.23;;;6.43;;
2031;SDS011;27625;50.422;7.944;2023-04-25T06:39:03;13.13;;;6.20;;
2031;SDS011;27625;50.422;7.944;2023-04-25T06:41:32;14.83;;;6.93;;
2031;SDS011;27625;50.422;7.944;2023-04-25T06:44:03;13.60;;;7.80;;
2031;SDS011;27625;50.422;7.944;2023-04-25T06:46:51;11.77;;;6.57;;
2031;SDS011;27625;50.422;7.944;2023-04-25T06:49:20;10.17;;;6.87;;
2031;SDS011;27625;50.422;7.944;2023-04-25T06:51:49;15.03;;;7.50;;
2031;SDS011;27625;50.422;7.944;2023-04-25T06:56:59;11.90;;;7.60;;
2031;SDS011;27625;50.422;7.944;2023-04-25T06:59:29;13.00;;;7.87;;
2031;SDS011;27625;50.422;7.944;2023-04-25T07:01:59;13.07;;;8.00;;
2031;SDS011;27625;50.422;7.944;2023-04-25T07:04:26;13.27;;;8.30;;
2031;SDS011;27625;50.422;7.944;2023-04-25T07:06:58;14.83;;;8.33;;
2031;SDS011;27625;50.422;7.944;2023-04-25T07:09:48;12.90;;;7.90;;
2031;SDS011;27625;50.422;7.944;2023-04-25T07:12:15;14.23;;;7.17;;
2031;SDS011;27625;50.422;7.944;2023-04-25T07:14:43;12.13;;;7.97;;
2031;SDS011;27625;50.422;7.944;2023-04-25T07:17:12;11.33;;;7.50;;
2031;SDS011;27625;50.422;7.944;2023-04-25T07:19:39;14.17;;;7.70;;
2031;SDS011;27625;50.422;7.944;2023-04-25T07:22:07;12.43;;;8.20;;
2031;SDS011;27625;50.422;7.944;2023-04-25T07:24:37;11.20;;;8.40;;
2031;SDS011;27625;50.422;7.944;2023-04-25T07:27:04;18.13;;;9.83;;
2031;SDS011;27625;50.422;7.944;2023-04-25T07:29:57;14.63;;;9.00;;
2031;SDS011;27625;50.422;7.944;2023-04-25T07:32:28;16.50;;;10.37;;
2031;SDS011;27625;50.422;7.944;2023-04-25T07:34:55;19.50;;;11.00;;
2031;SDS011;27625;50.422;7.944;2023-04-25T07:37:30;13.47;;;9.53;;
2031;SDS011;27625;50.422;7.944;2023-04-25T07:40:02;14.53;;;8.47;;
2031;SDS011;27625;50.422;7.944;2023-04-25T07:42:31;15.83;;;9.00;;
2031;SDS011;27625;50.422;7.944;2023-04-25T07:44:58;16.53;;;9.10;;
2031;SDS011;27625;50.422;7.944;2023-04-25T07:47:27;19.30;;;9.37;;
2031;SDS011;27625;50.422;7.944;2023-04-25T07:49:56;13.83;;;8.83;;
2031;SDS011;27625;50.422;7.944;2023-04-25T07:52:24;12.87;;;7.70;;
2031;SDS011;27625;50.422;7.944;2023-04-25T07:54:59;14.80;;;8.43;;
2031;SDS011;27625;50.422;7.944;2023-04-25T07:57:39;14.83;;;9.70;;
2031;SDS011;27625;50.422;7.944;2023-04-25T08:00:07;10.83;;;7.90;;
2031;SDS011;27625;50.422;7.944;2023-04-25T08:02:40;13.23;;;8.03;;
2031;SDS011;27625;50.422;7.944;2023-04-25T08:05:13;13.77;;;8.77;;
2031;SDS011;27625;50.422;7.944;2023-04-25T08:07:43;11.80;;;8.30;;
2031;SDS011;27625;50.422;7.944;2023-04-25T08:10:10;11.90;;;7.57;;
2031;SDS011;27625;50.422;7.944;2023-04-25T08:12:40;17.20;;;8.67;;
2031;SDS011;27625;50.422;7.944;2023-04-25T08:15:08;13.70;;;8.40;;
2031;SDS011;27625;50.422;7.944;2023-04-25T08:17:52;16.27;;;9.47;;
2031;SDS011;27625;50.422;7.944;2023-04-25T08:20:27;12.90;;;8.17;;
2031;SDS011;27625;50.422;7.944;2023-04-25T08:22:57;10.70;;;7.60;;
2031;SDS011;27625;50.422;7.944;2023-04-25T08:25:38;11.17;;;7.67;;
2031;SDS011;27625;50.422;7.944;2023-04-25T08:28:16;16.30;;;9.03;;
2031;SDS011;27625;50.422;7.944;2023-04-25T08:30:43;11.60;;;7.70;;
2031;SDS011;27625;50.422;7.944;2023-04-25T08:33:14;12.10;;;7.57;;
2031;SDS011;27625;50.422;7.944;2023-04-25T08:35:58;13.13;;;8.40;;
2031;SDS011;27625;50.422;7.944;2023-04-25T08:38:26;13.00;;;8.00;;
2031;SDS011;27625;50.422;7.944;2023-04-25T08:40:53;13.13;;;7.37;;
2031;SDS011;27625;50.422;7.944;2023-04-25T08:43:22;9.67;;;6.40;;
2031;SDS011;27625;50.422;7.944;2023-04-25T08:45:49;11.83;;;7.30;;
2031;SDS011;27625;50.422;7.944;2023-04-25T08:48:46;15.43;;;8.33;;
2031;SDS011;27625;50.422;7.944;2023-04-25T08:51:14;10.40;;;6.97;;
2031;SDS011;27625;50.422;7.944;2023-04-25T08:53:45;10.23;;;7.00;;
2031;SDS011;27625;50.422;7.944;2023-04-25T08:56:15;14.57;;;7.50;;
2031;SDS011;27625;50.422;7.944;2023-04-25T08:58:43;12.87;;;7.20;;
2031;SDS011;27625;50.422;7.944;2023-04-25T09:01:11;15.30;;;8.37;;
2031;SDS011;27625;50.422;7.944;2023-04-25T09:03:47;10.70;;;7.00;;
2031;SDS011;27625;50.422;7.944;2023-04-25T09:06:14;13.90;;;7.83;;
2031;SDS011;27625;50.422;7.944;2023-04-25T09:08:42;11.03;;;6.30;;
2031;SDS011;27625;50.422;7.944;2023-04-25T09:11:10;14.13;;;6.40;;
2031;SDS011;27625;50.422;7.944;2023-04-25T09:16:25;11.57;;;7.47;;
2031;SDS011;27625;50.422;7.944;2023-04-25T09:19:22;8.87;;;6.07;;
2031;SDS011;27625;50.422;7.944;2023-04-25T09:21:50;11.03;;;6.20;;
2031;SDS011;27625;50.422;7.944;2023-04-25T09:24:20;11.03;;;5.40;;
2031;SDS011;27625;50.422;7.944;2023-04-25T09:26:58;9.00;;;5.10;;
2031;SDS011;27625;50.422;7.944;2023-04-25T09:29:30;12.40;;;6.10;;
2031;SDS011;27625;50.422;7.944;2023-04-25T09:32:10;10.80;;;5.20;;
2031;SDS011;27625;50.422;7.944;2023-04-25T09:34:41;12.63;;;5.43;;
2031;SDS011;27625;50.422;7.944;2023-04-25T09:37:10;17.43;;;6.20;;
2031;SDS011;27625;50.422;7.944;2023-04-25T09:39:58;8.90;;;5.10;;
2031;SDS011;27625;50.422;7.944;2023-04-25T09:42:32;8.07;;;4.97;;
2031;SDS011;27625;50.422;7.944;2023-04-25T09:45:01;8.03;;;5.03;;
2031;SDS011;27625;50.422;7.944;2023-04-25T09:47:32;11.30;;;4.80;;
2031;SDS011;27625;50.422;7.944;2023-04-25T09:50:13;10.03;;;5.20;;
2031;SDS011;27625;50.422;7.944;2023-04-25T09:52:45;8.00;;;5.20;;
2031;SDS011;27625;50.422;7.944;2023-04-25T09:55:18;9.97;;;5.20;;
2031;SDS011;27625;50.422;7.944;2023-04-25T09:57:47;11.63;;;5.93;;
2031;SDS011;27625;50.422;7.944;2023-04-25T10:00:16;11.77;;;4.67;;
2031;SDS011;27625;50.422;7.944;2023-04-25T10:02:45;13.47;;;5.50;;
2031;SDS011;27625;50.422;7.944;2023-04-25T10:05:38;8.83;;;5.07;;
2031;SDS011;27625;50.422;7.944;2023-04-25T10:08:05;9.17;;;4.87;;
2031;SDS011;27625;50.422;7.944;2023-04-25T10:10:34;8.77;;;4.93;;
2031;SDS011;27625;50.422;7.944;2023-04-25T10:13:04;9.90;;;5.33;;
2031;SDS011;27625;50.422;7.944;2023-04-25T10:18:24;8.93;;;4.90;;
2031;SDS011;27625;50.422;7.944;2023-04-25T10:21:00;8.93;;;5.67;;
2031;SDS011;27625;50.422;7.944;2023-04-25T10:23:27;9.50;;;4.50;;
2031;SDS011;27625;50.422;7.944;2023-04-25T10:25:55;10.10;;;4.60;;
2031;SDS011;27625;50.422;7.944;2023-04-25T10:31:00;9.60;;;5.23;;
2031;SDS011;27625;50.422;7.944;2023-04-25T10:33:32;9.17;;;4.70;;
2031;SDS011;27625;50.422;7.944;2023-04-25T10:36:13;8.13;;;4.00;;
2031;SDS011;27625;50.422;7.944;2023-04-25T10:38:47;10.40;;;4.50;;
2031;SDS011;27625;50.422;7.944;2023-04-25T10:41:22;7.47;;;4.17;;
2031;SDS011;27625;50.422;7.944;2023-04-25T10:43:49;10.03;;;4.00;;
2031;SDS011;27625;50.422;7.944;2023-04-25T10:48:57;8.60;;;4.57;;
2031;SDS011;27625;50.422;7.944;2023-04-25T10:51:27;6.50;;;3.87;;
2031;SDS011;27625;50.422;7.944;2023-04-25T10:56:27;13.40;;;4.40;;
2031;SDS011;27625;50.422;7.944;2023-04-25T10:59:04;13.93;;;6.03;;
2031;SDS011;27625;50.422;7.944;2023-04-25T11:01:35;6.53;;;4.23;;
2031;SDS011;27625;50.422;7.944;2023-04-25T11:06:58;9.83;;;5.17;;
2031;SDS011;27625;50.422;7.944;2023-04-25T11:09:29;8.80;;;5.23;;
2031;SDS011;27625;50.422;7.944;2023-04-25T11:11:57;7.60;;;5.40;;
2031;SDS011;27625;50.422;7.944;2023-04-25T11:16:58;9.67;;;5.67;;
2031;SDS011;27625;50.422;7.944;2023-04-25T11:19:33;11.33;;;5.30;;
2031;SDS011;27625;50.422;7.944;2023-04-25T11:22:01;18.40;;;7.90;;
2031;SDS011;27625;50.422;7.944;2023-04-25T11:24:31;12.90;;;6.83;;
2031;SDS011;27625;50.422;7.944;2023-04-25T11:27:01;11.77;;;6.90;;
2031;SDS011;27625;50.422;7.944;2023-04-25T11:29:36;10.20;;;6.43;;
2031;SDS011;27625;50.422;7.944;2023-04-25T11:32:04;13.17;;;6.80;;
2031;SDS011;27625;50.422;7.944;2023-04-25T11:34:34;12.03;;;6.90;;
2031;SDS011;27625;50.422;7.944;2023-04-25T11:37:03;10.13;;;6.60;;
2031;SDS011;27625;50.422;7.944;2023-04-25T11:39:32;13.70;;;6.20;;
2031;SDS011;27625;50.422;7.944;2023-04-25T11:42:05;8.13;;;6.10;;
2031;SDS011;27625;50.422;7.944;2023-04-25T11:44:33;11.13;;;6.77;;
2031;SDS011;27625;50.422;7.944;2023-04-25T11:47:00;12.40;;;6.03;;
2031;SDS011;27625;50.422;7.944;2023-04-25T11:49:31;10.37;;;5.50;;
2031;SDS011;27625;50.422;7.944;2023-04-25T11:51:58;8.20;;;5.53;;
2031;SDS011;27625;50.422;7.944;2023-04-25T11:54:27;14.43;;;5.10;;
2031;SDS011;27625;50.422;7.944;2023-04-25T11:57:00;15.53;;;5.70;;
2031;SDS011;27625;50.422;7.944;2023-04-25T12:02:07;9.90;;;5.30;;
2031;SDS011;27625;50.422;7.944;2023-04-25T12:04:41;11.23;;;4.80;;
2031;SDS011;27625;50.422;7.944;2023-04-25T12:07:09;8.23;;;4.80;;
2031;SDS011;27625;50.422;7.944;2023-04-25T12:09:39;8.60;;;4.20;;
2031;SDS011;27625;50.422;7.944;2023-04-25T12:12:09;9.57;;;4.80;;
2031;SDS011;27625;50.422;7.944;2023-04-25T12:14:36;7.50;;;4.50;;
2031;SDS011;27625;50.422;7.944;2023-04-25T12:17:03;8.90;;;5.00;;
2031;SDS011;27625;50.422;7.944;2023-04-25T12:24:54;12.50;;;4.70;;
2031;SDS011;27625;50.422;7.944;2023-04-25T12:27:25;7.73;;;4.30;;
2031;SDS011;27625;50.422;7.944;2023-04-25T12:29:55;9.83;;;5.17;;
2031;SDS011;27625;50.422;7.944;2023-04-25T12:32:22;6.57;;;4.63;;
2031;SDS011;27625;50.422;7.944;2023-04-25T12:34:55;10.33;;;4.80;;
2031;SDS011;27625;50.422;7.944;2023-04-25T12:37:24;8.93;;;4.43;;
2031;SDS011;27625;50.422;7.944;2023-04-25T12:39:51;12.50;;;4.93;;
2031;SDS011;27625;50.422;7.944;2023-04-25T12:42:19;9.13;;;4.47;;
2031;SDS011;27625;50.422;7.944;2023-04-25T12:44:48;12.30;;;4.40;;
2031;SDS011;27625;50.422;7.944;2023-04-25T12:47:14;6.73;;;4.00;;
2031;SDS011;27625;50.422;7.944;2023-04-25T12:49:46;7.00;;;3.90;;
2031;SDS011;27625;50.422;7.944;2023-04-25T12:52:14;10.97;;;3.90;;
2031;SDS011;27625;50.422;7.944;2023-04-25T12:54:41;5.97;;;4.10;;
2031;SDS011;27625;50.422;7.944;2023-04-25T12:57:09;8.83;;;3.83;;
2031;SDS011;27625;50.422;7.944;2023-04-25T12:59:41;5.37;;;3.90;;
2031;SDS011;27625;50.422;7.944;2023-04-25T13:02:07;6.20;;;3.17;;
2031;SDS011;27625;50.422;7.944;2023-04-25T13:04:35;6.37;;;3.90;;
2031;SDS011;27625;50.422;7.944;2023-04-25T13:07:02;8.17;;;3.00;;
2031;SDS011;27625;50.422;7.944;2023-04-25T13:09:33;8.20;;;4.00;;
2031;SDS011;27625;50.422;7.944;2023-04-25T13:12:01;8.80;;;3.10;;
2031;SDS011;27625;50.422;7.944;2023-04-25T13:14:33;11.13;;;3.73;;
2031;SDS011;27625;50.422;7.944;2023-04-25T13:17:01;5.20;;;3.20;;
2031;SDS011;27625;50.422;7.944;2023-04-25T13:19:36;7.03;;;3.80;;
2031;SDS011;27625;50.422;7.944;2023-04-25T13:22:05;10.13;;;4.20;;
2031;SDS011;27625;50.422;7.944;2023-04-25T13:24:31;8.53;;;3.73;;
2031;SDS011;27625;50.422;7.944;2023-04-25T13:27:01;10.13;;;4.00;;
2031;SDS011;27625;50.422;7.944;2023-04-25T13:29:28;9.33;;;4.17;;
2031;SDS011;27625;50.422;7.944;2023-04-25T13:31:55;9.03;;;4.10;;
2031;SDS011;27625;50.422;7.944;2023-04-25T13:34:23;9.33;;;4.67;;
2031;SDS011;27625;50.422;7.944;2023-04-25T13:36:53;6.50;;;3.90;;
2031;SDS011;27625;50.422;7.944;2023-04-25T13:39:21;6.93;;;4.20;;
2031;SDS011;27625;50.422;7.944;2023-04-25T13:41:50;6.73;;;4.33;;
2031;SDS011;27625;50.422;7.944;2023-04-25T13:44:25;8.90;;;4.40;;
2031;SDS011;27625;50.422;7.944;2023-04-25T13:46:54;8.40;;;4.47;;
2031;SDS011;27625;50.422;7.944;2023-04-25T13:51:59;7.03;;;4.27;;
2031;SDS011;27625;50.422;7.944;2023-04-25T13:54:29;8.73;;;4.70;;
2031;SDS011;27625;50.422;7.944;2023-04-25T13:56:56;14.60;;;5.13;;
2031;SDS011;27625;50.422;7.944;2023-04-25T13:59:25;6.83;;;3.70;;
2031;SDS011;27625;50.422;7.944;2023-04-25T14:01:52;9.67;;;3.80;;
2031;SDS011;27625;50.422;7.944;2023-04-25T14:04:20;11.87;;;4.20;;
2031;SDS011;27625;50.422;7.944;2023-04-25T14:06:48;7.60;;;4.30;;
2031;SDS011;27625;50.422;7.944;2023-04-25T14:09:18;6.93;;;3.60;;
2031;SDS011;27625;50.422;7.944;2023-04-25T14:11:48;6.67;;;3.40;;
2031;SDS011;27625;50.422;7.944;2023-04-25T14:14:14;7.03;;;3.13;;
2031;SDS011;27625;50.422;7.944;2023-04-25T14:16:41;5.47;;;2.77;;
2031;SDS011;27625;50.422;7.944;2023-04-25T14:19:08;6.30;;;3.47;;
2031;SDS011;27625;50.422;7.944;2023-04-25T14:21:35;9.77;;;3.53;;
2031;SDS011;27625;50.422;7.944;2023-04-25T14:24:05;7.13;;;3.60;;
2031;SDS011;27625;50.422;7.944;2023-04-25T14:26:41;5.40;;;2.93;;
2031;SDS011;27625;50.422;7.944;2023-04-25T14:29:08;9.67;;;3.80;;
2031;SDS011;27625;50.422;7.944;2023-04-25T14:34:07;9.77;;;3.57;;
2031;SDS011;27625;50.422;7.944;2023-04-25T14:36:35;7.17;;;3.33;;
2031;SDS011;27625;50.422;7.944;2023-04-25T14:39:07;6.00;;;2.93;;
2031;SDS011;27625;50.422;7.944;2023-04-25T14:41:42;12.97;;;4.50;;
2031;SDS011;27625;50.422;7.944;2023-04-25T14:44:11;4.43;;;2.80;;
2031;SDS011;27625;50.422;7.944;2023-04-25T14:46:37;5.30;;;2.80;;
2031;SDS011;27625;50.422;7.944;2023-04-25T14:49:04;4.30;;;2.83;;
2031;SDS011;27625;50.422;7.944;2023-04-25T14:51:34;12.17;;;3.13;;
2031;SDS011;27625;50.422;7.944;2023-04-25T14:54:02;7.50;;;3.20;;
2031;SDS011;27625;50.422;7.944;2023-04-25T14:56:30;9.20;;;3.33;;
2031;SDS011;27625;50.422;7.944;2023-04-25T14:58:57;8.30;;;3.73;;
2031;SDS011;27625;50.422;7.944;2023-04-25T15:01:24;5.03;;;2.90;;
2031;SDS011;27625;50.422;7.944;2023-04-25T15:03:51;8.10;;;3.30;;
2031;SDS011;27625;50.422;7.944;2023-04-25T15:06:18;6.50;;;3.40;;
2031;SDS011;27625;50.422;7.944;2023-04-25T15:08:45;8.77;;;3.97;;
2031;SDS011;27625;50.422;7.944;2023-04-25T15:11:13;6.87;;;3.57;;
2031;SDS011;27625;50.422;7.944;2023-04-25T15:13:42;5.37;;;3.10;;
2031;SDS011;27625;50.422;7.944;2023-04-25T15:16:09;9.90;;;3.87;;
2031;SDS011;27625;50.422;7.944;2023-04-25T15:18:36;7.10;;;3.27;;
2031;SDS011;27625;50.422;7.944;2023-04-25T15:21:03;5.53;;;2.70;;
2031;SDS011;27625;50.422;7.944;2023-04-25T15:23:31;6.83;;;3.17;;
2031;SDS011;27625;50.422;7.944;2023-04-25T15:25:58;9.73;;;2.83;;
2031;SDS011;27625;50.422;7.944;2023-04-25T15:30:58;7.60;;;3.07;;
2031;SDS011;27625;50.422;7.944;2023-04-25T15:33:25;10.93;;;2.93;;
2031;SDS011;27625;50.422;7.944;2023-04-25T15:35:52;7.00;;;2.80;;
2031;SDS011;27625;50.422;7.944;2023-04-25T15:38:21;8.20;;;4.60;;
2031;SDS011;27625;50.422;7.944;2023-04-25T15:40:48;10.13;;;4.97;;
2031;SDS011;27625;50.422;7.944;2023-04-25T15:45:53;8.43;;;4.77;;
2031;SDS011;27625;50.422;7.944;2023-04-25T15:48:22;6.70;;;3.40;;
2031;SDS011;27625;50.422;7.944;2023-04-25T15:50:59;8.57;;;3.60;;
2031;SDS011;27625;50.422;7.944;2023-04-25T15:53:27;8.03;;;4.20;;
2031;SDS011;27625;50.422;7.944;2023-04-25T15:56:01;6.47;;;4.37;;
2031;SDS011;27625;50.422;7.944;2023-04-25T15:58:29;8.83;;;3.90;;
2031;SDS011;27625;50.422;7.944;2023-04-25T16:00:56;4.50;;;3.23;;
2031;SDS011;27625;50.422;7.944;2023-04-25T16:03:24;6.70;;;3.00;;
2031;SDS011;27625;50.422;7.944;2023-04-25T16:06:02;6.10;;;3.47;;
2031;SDS011;27625;50.422;7.944;2023-04-25T16:08:30;7.50;;;3.40;;
2031;SDS011;27625;50.422;7.944;2023-04-25T16:10:58;8.40;;;2.73;;
2031;SDS011;27625;50.422;7.944;2023-04-25T16:15:57;6.17;;;3.13;;
2031;SDS011;27625;50.422;7.944;2023-04-25T16:18:28;10.00;;;3.20;;
2031;SDS011;27625;50.422;7.944;2023-04-25T16:20:55;6.90;;;3.00;;
2031;SDS011;27625;50.422;7.944;2023-04-25T16:23:22;4.90;;;2.50;;
2031;SDS011;27625;50.422;7.944;2023-04-25T16:25:50;4.10;;;2.70;;